sensor_id;sensor_type;location;lat;lon;timestamp;pressure;altitude;pressure_sealevel;temperature;humidity
49627;BME280;35527;54.616;39.786;2022-11-20T00:01:18;99885.84;;;-1.47;100.00
49627;BME280;35527;54.616;39.786;2022-11-20T00:04:23;99850.03;;;-1.73;100.00
49627;BME280;35527;54.616;39.786;2022-11-20T00:07:26;99885.03;;;-1.44;100.00
49627;BME280;35527;54.616;39.786;2022-11-20T00:10:28;99898.53;;;-1.47;100.00
49627;BME280;35527;54.616;39.786;2022-11-20T00:13:32;99898.41;;;-1.59;100.00
49627;BME280;35527;54.616;39.786;2022-11-20T00:16:38;99880.50;;;-1.70;100.00
49627;BME280;35527;54.616;39.786;2022-11-20T00:19:41;99883.97;;;-1.65;100.00
49627;BME280;35527;54.616;39.786;2022-11-20T00:22:44;99887.28;;;-1.70;100.00
49627;BME280;35527;54.616;39.786;2022-11-20T00:25:47;99898.34;;;-1.65;100.00
49627;BME280;35527;54.616;39.786;2022-11-20T00:28:54;99900.09;;;-1.60;100.00
49627;BME280;35527;54.616;39.786;2022-11-20T00:31:57;99896.78;;;-1.54;100.00
49627;BME280;35527;54.616;39.786;2022-11-20T00:35:02;99888.97;;;-1.69;100.00
49627;BME280;35527;54.616;39.786;2022-11-20T00:38:06;99884.78;;;-1.69;100.00
49627;BME280;35527;54.616;39.786;2022-11-20T00:41:13;99909.47;;;-1.52;100.00
49627;BME280;35527;54.616;39.786;2022-11-20T00:44:18;99906.88;;;-1.55;100.00
49627;BME280;35527;54.616;39.786;2022-11-20T00:47:20;99896.00;;;-1.47;100.00
49627;BME280;35527;54.616;39.786;2022-11-20T00:50:24;99904.44;;;-1.48;100.00
49627;BME280;35527;54.616;39.786;2022-11-20T00:53:28;99870.44;;;-1.65;100.00
49627;BME280;35527;54.616;39.786;2022-11-20T00:56:30;99924.03;;;-1.36;100.00
49627;BME280;35527;54.616;39.786;2022-11-20T00:59:35;99919.88;;;-1.29;100.00
49627;BME280;35527;54.616;39.786;2022-11-20T01:02:40;99896.81;;;-1.51;100.00
49627;BME280;35527;54.616;39.786;2022-11-20T01:05:44;99901.91;;;-1.48;100.00
49627;BME280;35527;54.616;39.786;2022-11-20T01:08:48;99900.28;;;-1.43;100.00
49627;BME280;35527;54.616;39.786;2022-11-20T01:11:52;99897.72;;;-1.44;100.00
49627;BME280;35527;54.616;39.786;2022-11-20T01:14:55;99913.97;;;-1.27;100.00
49627;BME280;35527;54.616;39.786;2022-11-20T01:18:02;99910.53;;;-1.32;100.00
49627;BME280;35527;54.616;39.786;2022-11-20T01:21:10;99912.28;;;-1.26;100.00
49627;BME280;35527;54.616;39.786;2022-11-20T01:24:15;99921.59;;;-1.28;100.00
49627;BME280;35527;54.616;39.786;2022-11-20T01:27:21;99917.31;;;-1.31;100.00
49627;BME280;35527;54.616;39.786;2022-11-20T01:30:26;99903.81;;;-1.28;100.00
49627;BME280;35527;54.616;39.786;2022-11-20T01:33:28;99903.00;;;-1.26;100.00
49627;BME280;35527;54.616;39.786;2022-11-20T01:36:32;99882.59;;;-1.32;100.00
49627;BME280;35527;54.616;39.786;2022-11-20T01:39:36;99891.91;;;-1.32;100.00
49627;BME280;35527;54.616;39.786;2022-11-20T01:42:46;99919.97;;;-1.20;100.00
49627;BME280;35527;54.616;39.786;2022-11-20T01:46:19;99915.75;;;-1.18;100.00
49627;BME280;35527;54.616;39.786;2022-11-20T01:49:48;99915.81;;;-1.12;100.00
49627;BME280;35527;54.616;39.786;2022-11-20T01:52:56;99907.31;;;-1.16;100.00
49627;BME280;35527;54.616;39.786;2022-11-20T01:56:03;99911.53;;;-1.16;100.00
49627;BME280;35527;54.616;39.786;2022-11-20T01:59:08;99921.78;;;-1.08;100.00
49627;BME280;35527;54.616;39.786;2022-11-20T02:02:14;99911.50;;;-1.21;100.00
49627;BME280;35527;54.616;39.786;2022-11-20T02:05:28;99932.91;;;-0.97;100.00
49627;BME280;35527;54.616;39.786;2022-11-20T02:08:35;99938.78;;;-1.03;100.00
49627;BME280;35527;54.616;39.786;2022-11-20T02:11:41;99931.00;;;-1.15;100.00
49627;BME280;35527;54.616;39.786;2022-11-20T02:14:45;99923.38;;;-1.18;100.00
49627;BME280;35527;54.616;39.786;2022-11-20T02:18:19;99940.38;;;-1.11;100.00
49627;BME280;35527;54.616;39.786;2022-11-20T02:24:38;99927.56;;;-1.22;100.00
49627;BME280;35527;54.616;39.786;2022-11-20T02:27:43;99930.09;;;-1.22;100.00
49627;BME280;35527;54.616;39.786;2022-11-20T02:30:46;99953.09;;;-1.11;100.00
49627;BME280;35527;54.616;39.786;2022-11-20T02:33:55;99944.66;;;-1.07;100.00
49627;BME280;35527;54.616;39.786;2022-11-20T02:36:58;99953.13;;;-1.05;100.00
49627;BME280;35527;54.616;39.786;2022-11-20T02:40:03;99965.88;;;-1.02;100.00
49627;BME280;35527;54.616;39.786;2022-11-20T02:43:06;99968.44;;;-0.99;100.00
49627;BME280;35527;54.616;39.786;2022-11-20T02:46:09;99959.88;;;-1.07;100.00
49627;BME280;35527;54.616;39.786;2022-11-20T02:49:12;99966.78;;;-0.97;100.00
49627;BME280;35527;54.616;39.786;2022-11-20T02:52:15;99960.84;;;-0.96;100.00
49627;BME280;35527;54.616;39.786;2022-11-20T02:55:19;99953.13;;;-1.05;100.00
49627;BME280;35527;54.616;39.786;2022-11-20T02:58:25;99968.47;;;-0.97;100.00
49627;BME280;35527;54.616;39.786;2022-11-20T03:01:29;99971.00;;;-0.96;100.00
49627;BME280;35527;54.616;39.786;2022-11-20T03:04:33;99954.84;;;-1.04;100.00
49627;BME280;35527;54.616;39.786;2022-11-20T03:07:36;99978.63;;;-0.96;100.00
49627;BME280;35527;54.616;39.786;2022-11-20T03:10:40;99970.06;;;-1.05;100.00
49627;BME280;35527;54.616;39.786;2022-11-20T03:13:44;99982.03;;;-0.94;100.00
49627;BME280;35527;54.616;39.786;2022-11-20T03:16:47;99970.09;;;-1.01;100.00
49627;BME280;35527;54.616;39.786;2022-11-20T03:19:51;99979.53;;;-0.89;100.00
49627;BME280;35527;54.616;39.786;2022-11-20T03:22:58;99973.50;;;-0.99;100.00
49627;BME280;35527;54.616;39.786;2022-11-20T03:26:20;99981.16;;;-0.96;100.00
49627;BME280;35527;54.616;39.786;2022-11-20T03:29:28;99971.78;;;-1.03;100.00
49627;BME280;35527;54.616;39.786;2022-11-20T03:32:56;99973.44;;;-1.06;100.00
49627;BME280;35527;54.616;39.786;2022-11-20T03:36:07;99987.88;;;-1.01;100.00
49627;BME280;35527;54.616;39.786;2022-11-20T03:39:10;99997.28;;;-0.92;100.00
49627;BME280;35527;54.616;39.786;2022-11-20T03:42:13;99975.97;;;-1.06;100.00
49627;BME280;35527;54.616;39.786;2022-11-20T03:45:42;99990.47;;;-0.95;100.00
49627;BME280;35527;54.616;39.786;2022-11-20T03:48:51;99998.16;;;-0.90;100.00
49627;BME280;35527;54.616;39.786;2022-11-20T03:51:55;99997.28;;;-0.92;100.00
49627;BME280;35527;54.616;39.786;2022-11-20T03:54:57;99984.53;;;-0.98;100.00
49627;BME280;35527;54.616;39.786;2022-11-20T03:58:01;99990.47;;;-0.95;100.00
49627;BME280;35527;54.616;39.786;2022-11-20T04:01:14;99991.25;;;-1.00;100.00
49627;BME280;35527;54.616;39.786;2022-11-20T04:04:18;100010.84;;;-0.92;100.00
49627;BME280;35527;54.616;39.786;2022-11-20T04:07:23;99990.50;;;-0.93;100.00
49627;BME280;35527;54.616;39.786;2022-11-20T04:10:27;99976.84;;;-1.04;100.00
49627;BME280;35527;54.616;39.786;2022-11-20T04:13:35;100005.78;;;-0.90;100.00
49627;BME280;35527;54.616;39.786;2022-11-20T04:16:38;100004.91;;;-0.92;100.00
49627;BME280;35527;54.616;39.786;2022-11-20T04:19:43;100012.56;;;-0.91;100.00
49627;BME280;35527;54.616;39.786;2022-11-20T04:22:47;100011.75;;;-0.88;100.00
49627;BME280;35527;54.616;39.786;2022-11-20T04:25:50;100007.47;;;-0.89;100.00
49627;BME280;35527;54.616;39.786;2022-11-20T04:28:54;99978.50;;;-1.08;100.00
49627;BME280;35527;54.616;39.786;2022-11-20T04:31:59;100019.28;;;-0.93;100.00
49627;BME280;35527;54.616;39.786;2022-11-20T04:35:03;100018.47;;;-0.92;100.00
49627;BME280;35527;54.616;39.786;2022-11-20T04:38:10;100016.66;;;-1.02;100.00
49627;BME280;35527;54.616;39.786;2022-11-20T04:41:18;100043.88;;;-0.90;100.00
49627;BME280;35527;54.616;39.786;2022-11-20T04:44:23;100049.84;;;-0.88;100.00
49627;BME280;35527;54.616;39.786;2022-11-20T04:47:27;100058.34;;;-0.84;100.00
49627;BME280;35527;54.616;39.786;2022-11-20T04:50:34;100050.66;;;-0.89;100.00
49627;BME280;35527;54.616;39.786;2022-11-20T04:53:36;100043.84;;;-0.93;100.00
49627;BME280;35527;54.616;39.786;2022-11-20T04:56:42;100061.59;;;-0.95;100.00
49627;BME280;35527;54.616;39.786;2022-11-20T05:00:15;100058.94;;;-1.07;100.00
49627;BME280;35527;54.616;39.786;2022-11-20T05:03:18;100063.03;;;-1.20;100.00
49627;BME280;35527;54.616;39.786;2022-11-20T05:06:25;100086.06;;;-1.06;100.00
49627;BME280;35527;54.616;39.786;2022-11-20T05:09:52;100066.44;;;-1.16;100.00
49627;BME280;35527;54.616;39.786;2022-11-20T05:13:20;100067.31;;;-1.13;100.00
49627;BME280;35527;54.616;39.786;2022-11-20T05:16:25;100081.03;;;-1.00;100.00
49627;BME280;35527;54.616;39.786;2022-11-20T05:19:27;100099.75;;;-0.93;100.00
49627;BME280;35527;54.616;39.786;2022-11-20T05:22:31;100101.56;;;-0.83;100.00
49627;BME280;35527;54.616;39.786;2022-11-20T05:25:39;100104.91;;;-0.84;100.00
49627;BME280;35527;54.616;39.786;2022-11-20T05:28:44;100098.16;;;-0.85;100.00
49627;BME280;35527;54.616;39.786;2022-11-20T05:31:49;100087.88;;;-0.93;100.00
49627;BME280;35527;54.616;39.786;2022-11-20T05:34:52;100102.34;;;-0.87;100.00
49627;BME280;35527;54.616;39.786;2022-11-20T05:37:56;100110.81;;;-0.88;100.00
49627;BME280;35527;54.616;39.786;2022-11-20T05:41:06;100120.94;;;-0.91;100.00
49627;BME280;35527;54.616;39.786;2022-11-20T05:44:12;100132.84;;;-0.88;100.00
49627;BME280;35527;54.616;39.786;2022-11-20T05:47:15;100128.53;;;-0.94;100.00
49627;BME280;35527;54.616;39.786;2022-11-20T05:50:17;100160.06;;;-0.75;100.00
49627;BME280;35527;54.616;39.786;2022-11-20T05:53:22;100125.94;;;-0.96;100.00
49627;BME280;35527;54.616;39.786;2022-11-20T05:56:26;100135.50;;;-0.76;100.00
49627;BME280;35527;54.616;39.786;2022-11-20T05:59:32;100134.66;;;-0.75;100.00
49627;BME280;35527;54.616;39.786;2022-11-20T06:02:40;100132.09;;;-0.80;100.00
49627;BME280;35527;54.616;39.786;2022-11-20T06:05:44;100140.50;;;-0.84;100.00
49627;BME280;35527;54.616;39.786;2022-11-20T06:08:48;100154.06;;;-0.82;100.00
49627;BME280;35527;54.616;39.786;2022-11-20T06:11:52;100157.34;;;-0.89;100.00
49627;BME280;35527;54.616;39.786;2022-11-20T06:14:56;100167.44;;;-0.97;100.00
49627;BME280;35527;54.616;39.786;2022-11-20T06:18:05;100158.91;;;-1.02;100.00
49627;BME280;35527;54.616;39.786;2022-11-20T06:21:11;100163.94;;;-1.05;100.00
49627;BME280;35527;54.616;39.786;2022-11-20T06:24:16;100165.44;;;-1.19;100.00
49627;BME280;35527;54.616;39.786;2022-11-20T06:27:20;100174.06;;;-1.08;100.00
49627;BME280;35527;54.616;39.786;2022-11-20T06:30:24;100182.59;;;-1.03;100.00
49627;BME280;35527;54.616;39.786;2022-11-20T06:33:30;100175.78;;;-1.05;100.00
49627;BME280;35527;54.616;39.786;2022-11-20T06:36:35;100167.09;;;-1.21;100.00
49627;BME280;35527;54.616;39.786;2022-11-20T06:39:38;100171.31;;;-1.22;100.00
49627;BME280;35527;54.616;39.786;2022-11-20T06:42:41;100184.94;;;-1.17;100.00
49627;BME280;35527;54.616;39.786;2022-11-20T06:45:43;100191.75;;;-1.13;100.00
49627;BME280;35527;54.616;39.786;2022-11-20T06:48:49;100200.25;;;-1.10;100.00
49627;BME280;35527;54.616;39.786;2022-11-20T06:51:53;100184.69;;;-1.32;100.00
49627;BME280;35527;54.616;39.786;2022-11-20T06:54:58;100184.84;;;-1.23;100.00
49627;BME280;35527;54.616;39.786;2022-11-20T06:58:00;100178.75;;;-1.34;100.00
49627;BME280;35527;54.616;39.786;2022-11-20T07:01:07;100163.50;;;-1.36;100.00
49627;BME280;35527;54.616;39.786;2022-11-20T07:04:11;100184.13;;;-1.14;100.00
49627;BME280;35527;54.616;39.786;2022-11-20T07:07:18;100202.00;;;-1.06;100.00
49627;BME280;35527;54.616;39.786;2022-11-20T07:10:25;100183.16;;;-1.21;100.00
49627;BME280;35527;54.616;39.786;2022-11-20T07:13:33;100198.50;;;-1.16;100.00
49627;BME280;35527;54.616;39.786;2022-11-20T07:16:37;100140.41;;;-1.54;100.00
49627;BME280;35527;54.616;39.786;2022-11-20T07:19:40;100176.44;;;-1.19;100.00
49627;BME280;35527;54.616;39.786;2022-11-20T07:22:43;100191.59;;;-1.23;100.00
49627;BME280;35527;54.616;39.786;2022-11-20T07:25:46;100206.06;;;-1.18;100.00
49627;BME280;35527;54.616;39.786;2022-11-20T07:28:49;100226.53;;;-1.08;100.00
49627;BME280;35527;54.616;39.786;2022-11-20T07:31:56;100212.16;;;-1.08;100.00
49627;BME280;35527;54.616;39.786;2022-11-20T07:34:58;100239.53;;;-0.88;100.00
49627;BME280;35527;54.616;39.786;2022-11-20T07:38:01;100224.09;;;-1.02;100.00
49627;BME280;35527;54.616;39.786;2022-11-20T07:41:05;100231.72;;;-1.02;100.00
49627;BME280;35527;54.616;39.786;2022-11-20T07:44:10;100201.78;;;-1.22;100.00
49627;BME280;35527;54.616;39.786;2022-11-20T07:47:13;100221.31;;;-1.18;100.00
49627;BME280;35527;54.616;39.786;2022-11-20T07:50:17;100239.41;;;-0.95;100.00
49627;BME280;35527;54.616;39.786;2022-11-20T07:53:19;100225.06;;;-0.93;100.00
49627;BME280;35527;54.616;39.786;2022-11-20T07:56:26;100230.38;;;-0.76;100.00
49627;BME280;35527;54.616;39.786;2022-11-20T07:59:30;100227.00;;;-0.75;100.00
49627;BME280;35527;54.616;39.786;2022-11-20T08:02:41;100217.56;;;-0.83;100.00
49627;BME280;35527;54.616;39.786;2022-11-20T08:05:44;100238.22;;;-0.59;100.00
49627;BME280;35527;54.616;39.786;2022-11-20T08:08:49;100206.84;;;-0.62;100.00
49627;BME280;35527;54.616;39.786;2022-11-20T08:11:51;100214.47;;;-0.62;100.00
49627;BME280;35527;54.616;39.786;2022-11-20T08:15:14;100240.84;;;-0.54;100.00
49627;BME280;35527;54.616;39.786;2022-11-20T08:18:17;100219.53;;;-0.64;100.00
49627;BME280;35527;54.616;39.786;2022-11-20T08:21:38;100251.00;;;-0.53;100.00
49627;BME280;35527;54.616;39.786;2022-11-20T08:24:40;100244.09;;;-0.64;100.00
49627;BME280;35527;54.616;39.786;2022-11-20T08:27:46;100275.69;;;-0.44;100.00
49627;BME280;35527;54.616;39.786;2022-11-20T08:30:50;100278.38;;;-0.32;100.00
49627;BME280;35527;54.616;39.786;2022-11-20T08:33:55;100252.06;;;-0.35;100.00
49627;BME280;35527;54.616;39.786;2022-11-20T08:36:58;100258.94;;;-0.31;100.00
49627;BME280;35527;54.616;39.786;2022-11-20T08:40:03;100276.81;;;-0.24;100.00
49627;BME280;35527;54.616;39.786;2022-11-20T08:43:10;100275.16;;;-0.20;100.00
49627;BME280;35527;54.616;39.786;2022-11-20T08:46:16;100265.09;;;-0.09;100.00
49627;BME280;35527;54.616;39.786;2022-11-20T08:49:19;100243.75;;;-0.25;100.00
49627;BME280;35527;54.616;39.786;2022-11-20T08:52:25;100259.94;;;-0.15;100.00
49627;BME280;35527;54.616;39.786;2022-11-20T08:55:30;100281.28;;;-0.06;100.00
49627;BME280;35527;54.616;39.786;2022-11-20T08:58:33;100266.03;;;-0.03;100.00
49627;BME280;35527;54.616;39.786;2022-11-20T09:01:45;100294.16;;;0.11;100.00
49627;BME280;35527;54.616;39.786;2022-11-20T09:04:48;100281.16;;;-0.15;100.00
49627;BME280;35527;54.616;39.786;2022-11-20T09:07:59;100301.63;;;-0.06;100.00
49627;BME280;35527;54.616;39.786;2022-11-20T09:11:57;100276.13;;;-0.09;100.00
49627;BME280;35527;54.616;39.786;2022-11-20T09:15:09;100294.81;;;-0.07;100.00
49627;BME280;35527;54.616;39.786;2022-11-20T09:18:13;100284.44;;;-0.25;100.00
49627;BME280;35527;54.616;39.786;2022-11-20T09:21:16;100292.75;;;-0.37;100.00
49627;BME280;35527;54.616;39.786;2022-11-20T09:24:19;100283.31;;;-0.46;100.00
49627;BME280;35527;54.616;39.786;2022-11-20T09:27:25;100312.25;;;-0.36;100.00
49627;BME280;35527;54.616;39.786;2022-11-20T09:30:38;100317.25;;;-0.40;100.00
49627;BME280;35527;54.616;39.786;2022-11-20T09:33:41;100317.19;;;-0.47;100.00
49627;BME280;35527;54.616;39.786;2022-11-20T09:36:46;100319.69;;;-0.50;100.00
49627;BME280;35527;54.616;39.786;2022-11-20T09:39:50;100344.31;;;-0.47;100.00
49627;BME280;35527;54.616;39.786;2022-11-20T09:46:32;100326.63;;;-0.39;100.00
49627;BME280;35527;54.616;39.786;2022-11-20T09:50:29;100351.47;;;-0.18;100.00
49627;BME280;35527;54.616;39.786;2022-11-20T09:57:17;100350.28;;;-0.43;100.00
49627;BME280;35527;54.616;39.786;2022-11-20T10:00:28;100357.19;;;-0.35;100.00
49627;BME280;35527;54.616;39.786;2022-11-20T10:07:11;100354.97;;;-0.70;100.00
49627;BME280;35527;54.616;39.786;2022-11-20T10:10:40;100361.56;;;-0.82;100.00
49627;BME280;35527;54.616;39.786;2022-11-20T10:30:19;100387.78;;;-0.83;100.00
49627;BME280;35527;54.616;39.786;2022-11-20T10:33:25;100371.75;;;-0.81;100.00
49627;BME280;35527;54.616;39.786;2022-11-20T10:40:02;100369.53;;;-0.61;100.00
49627;BME280;35527;54.616;39.786;2022-11-20T10:43:12;100388.38;;;-0.47;100.00
49627;BME280;35527;54.616;39.786;2022-11-20T10:46:20;100400.38;;;-0.38;100.00
49627;BME280;35527;54.616;39.786;2022-11-20T10:49:26;100400.41;;;-0.35;100.00
49627;BME280;35527;54.616;39.786;2022-11-20T10:52:47;100408.97;;;-0.31;100.00
49627;BME280;35527;54.616;39.786;2022-11-20T10:56:07;100398.91;;;-0.20;100.00
49627;BME280;35527;54.616;39.786;2022-11-20T11:02:51;100394.91;;;-0.03;100.00
49627;BME280;35527;54.616;39.786;2022-11-20T11:06:03;100396.66;;;-0.01;100.00
49627;BME280;35527;54.616;39.786;2022-11-20T11:09:17;100382.00;;;-0.18;100.00
49627;BME280;35527;54.616;39.786;2022-11-20T11:12:27;100367.44;;;-0.30;100.00
49627;BME280;35527;54.616;39.786;2022-11-20T11:15:40;100364.84;;;-0.32;100.00
49627;BME280;35527;54.616;39.786;2022-11-20T11:18:44;100389.38;;;-0.35;100.00
49627;BME280;35527;54.616;39.786;2022-11-20T11:21:55;100391.13;;;-0.33;100.00
49627;BME280;35527;54.616;39.786;2022-11-20T11:25:00;100385.19;;;-0.32;100.00
49627;BME280;35527;54.616;39.786;2022-11-20T11:31:23;100388.53;;;-0.36;100.00
49627;BME280;35527;54.616;39.786;2022-11-20T11:34:27;100399.53;;;-0.38;100.00
49627;BME280;35527;54.616;39.786;2022-11-20T11:37:35;100378.22;;;-0.47;100.00
49627;BME280;35527;54.616;39.786;2022-11-20T11:40:40;100378.03;;;-0.57;100.00
49627;BME280;35527;54.616;39.786;2022-11-20T11:47:46;100408.59;;;-0.56;100.00
49627;BME280;35527;54.616;39.786;2022-11-20T11:50:51;100387.16;;;-0.70;100.00
49627;BME280;35527;54.616;39.786;2022-11-20T11:53:55;100406.84;;;-0.60;100.00
49627;BME280;35527;54.616;39.786;2022-11-20T12:01:04;100412.06;;;-0.51;100.00
49627;BME280;35527;54.616;39.786;2022-11-20T12:04:46;100417.75;;;-0.64;100.00
49627;BME280;35527;54.616;39.786;2022-11-20T12:08:10;100414.91;;;-0.84;100.00
49627;BME280;35527;54.616;39.786;2022-11-20T12:11:20;100432.72;;;-0.81;100.00
49627;BME280;35527;54.616;39.786;2022-11-20T12:14:40;100437.00;;;-0.80;100.00
49627;BME280;35527;54.616;39.786;2022-11-20T12:17:47;100414.78;;;-0.90;100.00
49627;BME280;35527;54.616;39.786;2022-11-20T12:45:17;100453.22;;;-1.20;100.00
49627;BME280;35527;54.616;39.786;2022-11-20T12:51:51;100427.63;;;-1.31;100.00
49627;BME280;35527;54.616;39.786;2022-11-20T12:58:44;100429.22;;;-1.36;100.00
49627;BME280;35527;54.616;39.786;2022-11-20T13:05:46;100426.50;;;-1.44;100.00
49627;BME280;35527;54.616;39.786;2022-11-20T13:08:56;100427.47;;;-1.39;100.00
49627;BME280;35527;54.616;39.786;2022-11-20T13:12:19;100448.69;;;-1.35;100.00
49627;BME280;35527;54.616;39.786;2022-11-20T13:18:51;100438.28;;;-1.47;100.00
49627;BME280;35527;54.616;39.786;2022-11-20T13:21:54;100446.09;;;-1.38;100.00
49627;BME280;35527;54.616;39.786;2022-11-20T13:25:01;100441.50;;;-1.56;100.00
49627;BME280;35527;54.616;39.786;2022-11-20T13:28:27;100457.81;;;-1.45;100.00
49627;BME280;35527;54.616;39.786;2022-11-20T13:31:35;100445.84;;;-1.50;100.00
49627;BME280;35527;54.616;39.786;2022-11-20T13:34:54;100443.38;;;-1.47;100.00
49627;BME280;35527;54.616;39.786;2022-11-20T13:41:04;100479.88;;;-1.41;100.00
49627;BME280;35527;54.616;39.786;2022-11-20T13:44:36;100486.75;;;-1.35;100.00
49627;BME280;35527;54.616;39.786;2022-11-20T13:47:50;100469.66;;;-1.45;100.00
49627;BME280;35527;54.616;39.786;2022-11-20T13:51:06;100480.00;;;-1.34;100.00
49627;BME280;35527;54.616;39.786;2022-11-20T14:00:43;100462.94;;;-1.42;100.00
49627;BME280;35527;54.616;39.786;2022-11-20T14:03:48;100479.25;;;-1.30;100.00
49627;BME280;35527;54.616;39.786;2022-11-20T14:07:06;100468.19;;;-1.34;100.00
49627;BME280;35527;54.616;39.786;2022-11-20T14:10:20;100476.66;;;-1.32;100.00
49627;BME280;35527;54.616;39.786;2022-11-20T14:13:26;100449.91;;;-1.59;100.00
49627;BME280;35527;54.616;39.786;2022-11-20T14:16:35;100500.31;;;-1.34;100.00
49627;BME280;35527;54.616;39.786;2022-11-20T14:19:38;100503.91;;;-1.23;100.00
49627;BME280;35527;54.616;39.786;2022-11-20T14:22:50;100506.41;;;-1.26;100.00
49627;BME280;35527;54.616;39.786;2022-11-20T14:25:54;100491.03;;;-1.34;100.00
49627;BME280;35527;54.616;39.786;2022-11-20T14:29:02;100510.63;;;-1.27;100.00
49627;BME280;35527;54.616;39.786;2022-11-20T14:32:05;100513.16;;;-1.28;100.00
49627;BME280;35527;54.616;39.786;2022-11-20T14:35:40;100520.66;;;-1.33;100.00
49627;BME280;35527;54.616;39.786;2022-11-20T14:38:47;100523.09;;;-1.38;100.00
49627;BME280;35527;54.616;39.786;2022-11-20T14:41:53;100527.50;;;-1.30;100.00
49627;BME280;35527;54.616;39.786;2022-11-20T14:44:59;100513.84;;;-1.36;100.00
49627;BME280;35527;54.616;39.786;2022-11-20T14:48:02;100526.59;;;-1.32;100.00
49627;BME280;35527;54.616;39.786;2022-11-20T14:51:05;100530.13;;;-1.26;100.00
49627;BME280;35527;54.616;39.786;2022-11-20T14:54:19;100542.16;;;-1.16;100.00
49627;BME280;35527;54.616;39.786;2022-11-20T14:57:34;100551.66;;;-1.07;100.00
49627;BME280;35527;54.616;39.786;2022-11-20T15:00:39;100531.78;;;-1.26;100.00
49627;BME280;35527;54.616;39.786;2022-11-20T15:03:42;100547.91;;;-1.26;100.00
49627;BME280;35527;54.616;39.786;2022-11-20T15:06:54;100542.97;;;-1.18;100.00
49627;BME280;35527;54.616;39.786;2022-11-20T15:13:30;100563.38;;;-1.14;100.00
49627;BME280;35527;54.616;39.786;2022-11-20T15:17:01;100553.50;;;-1.41;100.00
49627;BME280;35527;54.616;39.786;2022-11-20T15:20:16;100573.31;;;-1.26;100.00
49627;BME280;35527;54.616;39.786;2022-11-20T15:23:20;100557.97;;;-1.30;100.00
49627;BME280;35527;54.616;39.786;2022-11-20T15:26:26;100558.69;;;-1.36;100.00
49627;BME280;35527;54.616;39.786;2022-11-20T15:29:29;100557.97;;;-1.30;100.00
49627;BME280;35527;54.616;39.786;2022-11-20T15:32:32;100539.09;;;-1.42;100.00
49627;BME280;35527;54.616;39.786;2022-11-20T15:35:35;100533.16;;;-1.42;100.00
49627;BME280;35527;54.616;39.786;2022-11-20T15:38:39;100558.56;;;-1.42;100.00
49627;BME280;35527;54.616;39.786;2022-11-20T15:41:42;100556.63;;;-1.52;100.00
49627;BME280;35527;54.616;39.786;2022-11-20T15:44:49;100554.16;;;-1.49;100.00
49627;BME280;35527;54.616;39.786;2022-11-20T15:48:25;100521.81;;;-1.58;100.00
49627;BME280;35527;54.616;39.786;2022-11-20T15:51:36;100540.88;;;-1.38;100.00
49627;BME280;35527;54.616;39.786;2022-11-20T15:54:42;100542.50;;;-1.41;100.00
49627;BME280;35527;54.616;39.786;2022-11-20T15:57:45;100514.13;;;-1.63;100.00
49627;BME280;35527;54.616;39.786;2022-11-20T16:00:48;100522.13;;;-1.44;100.00
49627;BME280;35527;54.616;39.786;2022-11-20T16:03:51;100529.06;;;-1.37;100.00
49627;BME280;35527;54.616;39.786;2022-11-20T16:06:55;100538.38;;;-1.34;100.00
49627;BME280;35527;54.616;39.786;2022-11-20T16:09:58;100538.38;;;-1.34;100.00
49627;BME280;35527;54.616;39.786;2022-11-20T16:13:02;100542.56;;;-1.38;100.00
49627;BME280;35527;54.616;39.786;2022-11-20T16:16:30;100505.00;;;-1.53;100.00
49627;BME280;35527;54.616;39.786;2022-11-20T16:19:35;100525.44;;;-1.47;100.00
49627;BME280;35527;54.616;39.786;2022-11-20T16:22:42;100511.84;;;-1.49;100.00
49627;BME280;35527;54.616;39.786;2022-11-20T16:25:48;100508.31;;;-1.57;100.00
49627;BME280;35527;54.616;39.786;2022-11-20T16:28:52;100499.69;;;-1.65;100.00
49627;BME280;35527;54.616;39.786;2022-11-20T16:31:56;100514.56;;;-1.41;100.00
49627;BME280;35527;54.616;39.786;2022-11-20T16:35:00;100514.50;;;-1.44;100.00
49627;BME280;35527;54.616;39.786;2022-11-20T16:38:04;100508.53;;;-1.46;100.00
49627;BME280;35527;54.616;39.786;2022-11-20T16:41:08;100491.31;;;-1.61;100.00
49627;BME280;35527;54.616;39.786;2022-11-20T16:44:18;100523.75;;;-1.48;100.00
49627;BME280;35527;54.616;39.786;2022-11-20T16:47:23;100507.53;;;-1.54;100.00
49627;BME280;35527;54.616;39.786;2022-11-20T16:50:26;100513.53;;;-1.49;100.00
49627;BME280;35527;54.616;39.786;2022-11-20T16:53:32;100510.28;;;-1.44;100.00
49627;BME280;35527;54.616;39.786;2022-11-20T16:56:37;100496.63;;;-1.50;100.00
49627;BME280;35527;54.616;39.786;2022-11-20T16:59:41;100483.88;;;-1.52;100.00
49627;BME280;35527;54.616;39.786;2022-11-20T17:02:44;100512.81;;;-1.45;100.00
49627;BME280;35527;54.616;39.786;2022-11-20T17:05:52;100499.09;;;-1.53;100.00
49627;BME280;35527;54.616;39.786;2022-11-20T17:08:57;100506.75;;;-1.50;100.00
49627;BME280;35527;54.616;39.786;2022-11-20T17:12:01;100503.31;;;-1.54;100.00
49627;BME280;35527;54.616;39.786;2022-11-20T17:15:04;100500.91;;;-1.46;100.00
49627;BME280;35527;54.616;39.786;2022-11-20T17:18:07;100493.97;;;-1.55;100.00
49627;BME280;35527;54.616;39.786;2022-11-20T17:21:13;100509.13;;;-1.58;100.00
49627;BME280;35527;54.616;39.786;2022-11-20T17:24:18;100502.34;;;-1.59;100.00
49627;BME280;35527;54.616;39.786;2022-11-20T17:27:22;100497.38;;;-1.54;100.00
49627;BME280;35527;54.616;39.786;2022-11-20T17:30:25;100505.13;;;-1.48;100.00
49627;BME280;35527;54.616;39.786;2022-11-20T17:33:30;100492.44;;;-1.47;100.00
49627;BME280;35527;54.616;39.786;2022-11-20T17:36:34;100488.81;;;-1.58;100.00
49627;BME280;35527;54.616;39.786;2022-11-20T17:39:38;100484.53;;;-1.62;100.00